Time;durP1;ratioP1;P1;durP2;ratioP2;P2;SDS_P1;SDS_P2;PMS_P1;PMS_P2;Temp;Humidity;BMP_temperature;BMP_pressure;BME280_temperature;BME280_humidity;BME280_pressure;Samples;Min_cycle;Max_cycle;Signal;HPM_P1;HPM_P2
2023/03/03 00:00:41;;;;;;;15.55;14.05;;;23.00;65.90;;;;;;6202615;28;87924;-67
2023/03/03 00:03:43;;;;;;;15.50;14.00;;;23.00;66.00;;;;;;6203106;28;89626;-67
2023/03/03 00:06:45;;;;;;;14.60;13.10;;;23.00;66.00;;;;;;6206867;28;87225;-67
2023/03/03 00:09:47;;;;;;;15.30;13.80;;;22.90;65.90;;;;;;6204459;28;88904;-67
2023/03/03 00:12:51;;;;;;;15.00;13.57;;;22.90;65.90;;;;;;6204706;28;89091;-67
2023/03/03 00:15:54;;;;;;;14.57;13.07;;;22.90;66.00;;;;;;6199326;28;90789;-67
2023/03/03 00:18:56;;;;;;;15.48;13.88;;;22.90;66.00;;;;;;6201962;28;89023;-68
2023/03/03 00:21:59;;;;;;;14.75;13.25;;;22.90;66.00;;;;;;6201621;28;89221;-67
2023/03/03 00:25:13;;;;;;;15.50;14.00;;;23.00;66.10;;;;;;6203987;28;89169;-67
2023/03/03 00:28:24;;;;;;;15.00;13.50;;;22.90;66.00;;;;;;6203599;28;89164;-66
2023/03/03 00:31:33;;;;;;;16.00;14.30;;;22.90;65.90;;;;;;6203479;28;89124;-67
2023/03/03 00:34:37;;;;;;;15.35;13.85;;;22.90;65.90;;;;;;6202762;28;89029;-67
2023/03/03 00:37:41;;;;;;;15.45;13.85;;;22.90;65.90;;;;;;6193772;28;89563;-67
2023/03/03 00:40:43;;;;;;;15.00;13.60;;;22.90;65.90;;;;;;6191467;28;89059;-67
2023/03/03 00:43:47;;;;;;;15.70;14.20;;;22.80;65.80;;;;;;6204255;28;88807;-67
2023/03/03 00:46:49;;;;;;;15.18;13.70;;;22.90;65.90;;;;;;6191996;28;90652;-67
2023/03/03 00:49:51;;;;;;;14.35;12.90;;;22.90;65.90;;;;;;6203079;28;88999;-67
2023/03/03 00:53:02;;;;;;;15.57;14.07;;;22.80;65.80;;;;;;6203630;28;88899;-67
2023/03/03 00:56:05;;;;;;;15.13;13.63;;;22.80;65.80;;;;;;6192285;28;89027;-67
2023/03/03 00:59:08;;;;;;;14.93;13.43;;;22.80;65.80;;;;;;6201716;28;89044;-67
2023/03/03 01:02:10;;;;;;;15.20;13.70;;;22.80;65.80;;;;;;6203484;28;89386;-67
2023/03/03 01:05:13;;;;;;;14.50;13.07;;;22.80;65.80;;;;;;6203166;28;89404;-68
2023/03/03 01:08:16;;;;;;;14.15;12.75;;;22.80;65.70;;;;;;6205064;28;87319;-67
2023/03/03 01:11:24;;;;;;;14.32;12.85;;;22.80;66.10;;;;;;6191397;28;88983;-67
2023/03/03 01:14:28;;;;;;;14.60;13.20;;;22.80;65.70;;;;;;6200592;28;89301;-67
2023/03/03 01:17:30;;;;;;;14.13;12.82;;;22.80;65.70;;;;;;6201109;28;89904;-67
2023/03/03 01:20:32;;;;;;;14.10;12.70;;;22.70;65.60;;;;;;6202535;28;89142;-67
2023/03/03 01:23:34;;;;;;;14.45;12.95;;;22.80;65.70;;;;;;6205859;28;87959;-67
2023/03/03 01:26:36;;;;;;;14.35;12.95;;;22.70;65.70;;;;;;6203934;28;89072;-67
2023/03/03 01:29:40;;;;;;;14.30;12.90;;;22.80;66.60;;;;;;6202912;28;89035;-67
2023/03/03 01:32:42;;;;;;;14.20;12.80;;;22.70;65.60;;;;;;6198026;28;89075;-67
2023/03/03 01:35:45;;;;;;;13.95;12.57;;;22.70;65.70;;;;;;6207682;28;89024;-67
2023/03/03 01:38:47;;;;;;;13.48;12.18;;;22.70;65.70;;;;;;6203222;28;88327;-67
2023/03/03 01:41:49;;;;;;;13.82;12.52;;;22.70;65.60;;;;;;6202616;28;89808;-67
2023/03/03 01:45:17;;;;;;;13.25;12.02;;;22.70;65.60;;;;;;6199549;28;89366;-67
2023/03/03 01:48:31;;;;;;;13.15;11.85;;;22.70;65.50;;;;;;6201931;28;90067;-67
2023/03/03 01:51:37;;;;;;;12.75;11.55;;;22.70;65.50;;;;;;6206054;28;89105;-67
2023/03/03 01:54:45;;;;;;;12.85;11.65;;;22.70;65.50;;;;;;6207084;28;88938;-67
2023/03/03 01:57:51;;;;;;;13.25;11.95;;;22.70;65.50;;;;;;6196743;28;89235;-67
2023/03/03 02:01:00;;;;;;;12.93;11.65;;;22.70;65.50;;;;;;6199822;28;89091;-66
2023/03/03 02:04:02;;;;;;;13.13;11.93;;;22.70;65.50;;;;;;6198099;28;87898;-67
2023/03/03 02:07:09;;;;;;;13.27;11.98;;;22.60;65.50;;;;;;6207182;28;90012;-67
2023/03/03 02:10:14;;;;;;;12.80;11.50;;;22.60;65.50;;;;;;6206118;28;88258;-67
2023/03/03 02:13:16;;;;;;;12.55;11.35;;;22.60;65.50;;;;;;6204045;28;89157;-67
2023/03/03 02:16:20;;;;;;;12.90;11.60;;;22.60;65.50;;;;;;6206704;28;89423;-67
2023/03/03 02:19:31;;;;;;;12.27;11.07;;;22.60;65.50;;;;;;6200987;28;90422;-67
2023/03/03 02:22:40;;;;;;;12.07;10.88;;;22.60;65.50;;;;;;6206150;28;89141;-67
2023/03/03 02:25:51;;;;;;;12.43;11.27;;;22.60;65.40;;;;;;6205938;28;89151;-67
2023/03/03 02:28:54;;;;;;;11.77;10.68;;;22.60;65.40;;;;;;6205739;28;89082;-66
2023/03/03 02:31:56;;;;;;;12.95;11.57;;;22.60;65.40;;;;;;6199493;28;89050;-67
2023/03/03 02:34:58;;;;;;;12.43;11.13;;;22.60;65.40;;;;;;6192964;28;89049;-67
2023/03/03 02:38:12;;;;;;;11.93;10.73;;;22.60;65.40;;;;;;6206338;28;89063;-67
2023/03/03 02:41:21;;;;;;;11.98;10.77;;;22.60;65.40;;;;;;6196258;28;88302;-67
2023/03/03 02:44:27;;;;;;;12.18;10.98;;;22.50;65.40;;;;;;6205760;28;89769;-67
2023/03/03 02:47:29;;;;;;;11.48;10.38;;;22.50;65.40;;;;;;6199958;28;89719;-67
2023/03/03 02:50:31;;;;;;;11.90;10.77;;;22.50;65.40;;;;;;6200951;28;91184;-67
2023/03/03 02:53:34;;;;;;;11.32;10.27;;;22.50;65.40;;;;;;6204038;28;88322;-67
2023/03/03 02:56:36;;;;;;;11.35;10.25;;;22.50;65.40;;;;;;6206497;28;90143;-67
2023/03/03 02:59:39;;;;;;;11.55;10.45;;;22.50;65.40;;;;;;6204341;28;89465;-67
2023/03/03 03:02:41;;;;;;;12.05;10.85;;;22.50;65.40;;;;;;6205655;28;87608;-65
2023/03/03 03:05:43;;;;;;;11.80;10.60;;;22.50;65.40;;;;;;6203067;28;89065;-65
2023/03/03 03:08:45;;;;;;;11.45;10.35;;;22.50;65.40;;;;;;6193857;28;89096;-65
2023/03/03 03:11:48;;;;;;;12.98;11.10;;;22.50;65.40;;;;;;6197321;28;88467;-65
2023/03/03 03:14:51;;;;;;;11.75;10.65;;;22.40;65.40;;;;;;6206732;28;89199;-65
2023/03/03 03:17:53;;;;;;;11.15;10.15;;;22.50;65.50;;;;;;6193318;28;88994;-65
2023/03/03 03:20:55;;;;;;;11.60;10.50;;;22.40;65.40;;;;;;6201277;28;89923;-65
2023/03/03 03:23:57;;;;;;;11.82;10.73;;;22.40;65.40;;;;;;6204729;28;89149;-65
2023/03/03 03:26:59;;;;;;;11.77;10.68;;;22.40;65.40;;;;;;6205202;28;88999;-65
2023/03/03 03:30:03;;;;;;;12.07;10.98;;;22.50;65.50;;;;;;6200364;28;89343;-65
2023/03/03 03:33:05;;;;;;;12.15;10.95;;;22.40;66.30;;;;;;6196554;28;88687;-68
2023/03/03 03:36:08;;;;;;;12.70;11.40;;;22.40;65.40;;;;;;6203521;28;89136;-68
2023/03/03 03:39:10;;;;;;;12.27;11.07;;;22.40;65.40;;;;;;6205933;28;89024;-67
2023/03/03 03:42:12;;;;;;;12.38;11.18;;;22.40;65.40;;;;;;6205200;28;87520;-67
2023/03/03 03:45:16;;;;;;;12.32;11.18;;;22.40;65.40;;;;;;6195718;28;89200;-68
2023/03/03 03:48:18;;;;;;;12.75;11.48;;;22.40;65.40;;;;;;6195434;28;87943;-67
2023/03/03 03:51:20;;;;;;;12.77;11.55;;;22.40;65.40;;;;;;6204156;28;90078;-67
2023/03/03 03:54:22;;;;;;;13.13;11.82;;;22.40;65.40;;;;;;6194696;28;89180;-67
2023/03/03 03:57:25;;;;;;;13.50;12.13;;;22.40;65.40;;;;;;6205225;28;89113;-68
2023/03/03 04:00:28;;;;;;;12.38;11.20;;;22.30;65.40;;;;;;6206191;28;90412;-65
2023/03/03 04:03:30;;;;;;;12.55;11.35;;;22.30;65.40;;;;;;6194245;28;90130;-65
2023/03/03 04:06:33;;;;;;;12.98;11.65;;;22.30;65.40;;;;;;6195142;28;88996;-66
2023/03/03 04:09:35;;;;;;;13.85;12.55;;;22.30;65.40;;;;;;6204354;28;89141;-65
2023/03/03 04:12:38;;;;;;;13.68;12.43;;;22.30;65.30;;;;;;6203289;28;88235;-65
2023/03/03 04:15:42;;;;;;;13.48;12.18;;;22.30;65.30;;;;;;6195147;28;89007;-65
2023/03/03 04:18:44;;;;;;;13.70;12.30;;;22.30;65.30;;;;;;6198578;28;89502;-65
2023/03/03 04:21:46;;;;;;;13.18;11.98;;;22.30;65.30;;;;;;6203013;28;90030;-65
2023/03/03 04:24:48;;;;;;;14.70;13.20;;;22.30;65.30;;;;;;6202314;28;89151;-64
2023/03/03 04:27:51;;;;;;;14.20;12.80;;;22.30;65.40;;;;;;6192836;28;89359;-65
2023/03/03 04:30:55;;;;;;;14.70;13.02;;;22.30;65.40;;;;;;6203109;28;89556;-64
2023/03/03 04:33:57;;;;;;;13.70;12.40;;;22.30;65.30;;;;;;6204721;28;88946;-65
2023/03/03 04:36:59;;;;;;;14.40;13.00;;;22.30;65.20;;;;;;6204072;28;89057;-64
2023/03/03 04:40:01;;;;;;;15.02;13.52;;;22.30;65.20;;;;;;6203076;28;89402;-65
2023/03/03 04:43:03;;;;;;;14.55;13.15;;;22.30;65.20;;;;;;6204139;28;88309;-65
2023/03/03 04:46:07;;;;;;;13.30;12.00;;;22.30;65.20;;;;;;6192858;28;89211;-64
2023/03/03 04:49:09;;;;;;;13.95;12.57;;;22.30;65.20;;;;;;6200669;28;89036;-65
2023/03/03 04:52:11;;;;;;;13.80;12.50;;;22.30;65.20;;;;;;6203198;28;90135;-65
2023/03/03 04:55:15;;;;;;;14.07;12.70;;;22.30;65.20;;;;;;6202654;28;89518;-65
2023/03/03 04:58:18;;;;;;;14.23;12.93;;;22.30;65.20;;;;;;6207531;28;89168;-66
2023/03/03 05:01:21;;;;;;;13.23;11.93;;;22.30;65.20;;;;;;6207396;28;88866;-65
2023/03/03 05:04:23;;;;;;;13.40;12.00;;;22.30;65.00;;;;;;6206754;28;89104;-65
2023/03/03 05:07:25;;;;;;;13.45;12.15;;;22.40;65.00;;;;;;6207828;28;89066;-65
2023/03/03 05:10:27;;;;;;;14.30;12.93;;;22.40;64.90;;;;;;6207678;28;89735;-65
2023/03/03 05:13:30;;;;;;;13.90;12.50;;;22.40;64.90;;;;;;6204999;28;88927;-65
2023/03/03 05:16:34;;;;;;;13.27;11.98;;;22.50;64.90;;;;;;6205456;28;89080;-65
2023/03/03 05:19:36;;;;;;;13.98;12.57;;;22.50;64.90;;;;;;6207045;28;87751;-65
2023/03/03 05:22:38;;;;;;;13.27;12.00;;;22.50;64.80;;;;;;6208116;28;88926;-65
2023/03/03 05:25:41;;;;;;;13.38;12.07;;;22.50;64.90;;;;;;6197109;28;89133;-66
2023/03/03 05:28:43;;;;;;;12.98;11.77;;;22.60;64.80;;;;;;6206415;28;89078;-64
2023/03/03 05:31:46;;;;;;;13.32;12.02;;;22.60;64.70;;;;;;6206844;28;88192;-65
2023/03/03 05:34:49;;;;;;;13.23;11.93;;;22.60;64.70;;;;;;6208117;28;89052;-65
2023/03/03 05:37:51;;;;;;;12.90;11.60;;;22.60;64.70;;;;;;6202475;28;89171;-65
2023/03/03 05:40:54;;;;;;;13.43;12.13;;;22.60;64.70;;;;;;6207832;28;89042;-65
2023/03/03 05:43:56;;;;;;;13.27;11.98;;;22.60;64.70;;;;;;6204531;28;88419;-65
2023/03/03 05:46:59;;;;;;;13.45;12.13;;;22.60;64.70;;;;;;6200207;28;89518;-65
2023/03/03 05:50:02;;;;;;;12.98;11.75;;;22.60;64.80;;;;;;6203939;28;89306;-66
2023/03/03 05:53:04;;;;;;;13.13;11.85;;;22.60;64.80;;;;;;6196829;28;90157;-68
2023/03/03 05:56:07;;;;;;;13.10;11.80;;;22.60;65.00;;;;;;6199230;28;89416;-68
2023/03/03 05:59:09;;;;;;;13.77;12.40;;;22.50;64.90;;;;;;6203246;28;89172;-68
2023/03/03 06:02:12;;;;;;;12.80;11.60;;;22.50;65.20;;;;;;6202237;28;88944;-68
2023/03/03 06:05:14;;;;;;;12.63;11.43;;;22.50;65.40;;;;;;6200703;28;89162;-67
2023/03/03 06:08:17;;;;;;;12.77;11.55;;;22.50;65.70;;;;;;6204292;28;88482;-68
2023/03/03 06:11:19;;;;;;;13.05;11.57;;;22.50;65.80;;;;;;6201629;28;89173;-67
2023/03/03 06:14:21;;;;;;;13.10;11.85;;;22.60;65.80;;;;;;6203165;28;88271;-67
2023/03/03 06:17:25;;;;;;;12.50;11.30;;;22.60;65.70;;;;;;6204991;28;89318;-67
2023/03/03 06:20:27;;;;;;;12.63;11.43;;;22.60;65.70;;;;;;6204477;28;88941;-67
2023/03/03 06:23:29;;;;;;;12.20;11.02;;;22.60;65.70;;;;;;6205969;28;90747;-67
2023/03/03 06:26:31;;;;;;;12.25;11.05;;;22.60;65.70;;;;;;6206784;28;89115;-67
2023/03/03 06:29:34;;;;;;;12.15;10.95;;;22.60;65.70;;;;;;6204687;28;87945;-67
2023/03/03 06:32:37;;;;;;;12.35;11.15;;;22.60;65.70;;;;;;6206722;28;88982;-67
2023/03/03 06:35:39;;;;;;;12.32;11.13;;;22.70;65.70;;;;;;6203651;28;89978;-65
2023/03/03 06:38:41;;;;;;;12.57;11.38;;;22.70;65.70;;;;;;6205698;28;89144;-67
2023/03/03 06:41:43;;;;;;;11.98;10.80;;;22.70;65.70;;;;;;6200846;28;88983;-67
2023/03/03 06:44:45;;;;;;;12.35;11.15;;;22.70;65.50;;;;;;6205896;28;88521;-67
2023/03/03 06:47:49;;;;;;;12.70;11.40;;;22.70;65.40;;;;;;6205971;28;88822;-68
2023/03/03 06:50:51;;;;;;;12.07;10.88;;;22.80;65.40;;;;;;6204706;28;89025;-67
2023/03/03 06:53:55;;;;;;;11.15;10.05;;;22.70;65.20;;;;;;6195785;28;91170;-65
2023/03/03 06:57:01;;;;;;;11.82;10.68;;;22.80;65.20;;;;;;6204456;28;89410;-65
2023/03/03 07:00:15;;;;;;;12.23;11.02;;;22.80;65.20;;;;;;6204013;28;89096;-65
2023/03/03 07:03:23;;;;;;;11.75;10.63;;;22.80;65.20;;;;;;6204934;28;89388;-65
2023/03/03 07:06:27;;;;;;;11.93;10.73;;;22.80;65.20;;;;;;6202422;28;89060;-65
2023/03/03 07:09:30;;;;;;;10.60;9.50;;;22.80;65.20;;;;;;6205802;28;89024;-64
2023/03/03 07:12:32;;;;;;;11.93;10.73;;;22.80;65.10;;;;;;6202686;28;88957;-65
2023/03/03 07:15:36;;;;;;;11.20;10.00;;;22.90;65.20;;;;;;6206253;28;88473;-64
2023/03/03 07:18:47;;;;;;;10.57;9.57;;;22.80;65.00;;;;;;6205462;28;89006;-64
2023/03/03 07:21:51;;;;;;;10.75;9.75;;;22.90;65.10;;;;;;6205879;28;89069;-65
2023/03/03 07:24:57;;;;;;;10.75;9.68;;;22.90;65.20;;;;;;6205172;28;89974;-65
2023/03/03 07:28:10;;;;;;;10.93;9.82;;;22.90;65.10;;;;;;6205500;28;88838;-67
2023/03/03 07:31:28;;;;;;;10.52;9.43;;;22.90;65.10;;;;;;6204894;28;89135;-67
2023/03/03 07:34:38;;;;;;;11.13;9.40;;;22.90;65.10;;;;;;6202644;28;89055;-67
2023/03/03 07:37:42;;;;;;;10.90;9.80;;;23.00;65.20;;;;;;6204852;28;89011;-67
2023/03/03 07:40:49;;;;;;;9.88;8.98;;;23.00;65.20;;;;;;6203703;28;89111;-68
2023/03/03 07:43:54;;;;;;;10.32;9.30;;;23.00;66.10;;;;;;6204806;28;89127;-67
2023/03/03 07:46:56;;;;;;;10.50;9.45;;;23.00;65.20;;;;;;6204489;28;88314;-67
2023/03/03 07:50:07;;;;;;;9.98;9.07;;;23.00;65.20;;;;;;6197701;28;89027;-67
2023/03/03 07:53:15;;;;;;;10.68;9.57;;;23.00;65.10;;;;;;6205724;28;89285;-66
2023/03/03 07:56:26;;;;;;;10.35;9.27;;;23.00;65.10;;;;;;6202902;28;89931;-66
2023/03/03 07:59:28;;;;;;;11.55;9.60;;;23.00;65.20;;;;;;6205058;28;88127;-66
2023/03/03 08:02:38;;;;;;;10.00;9.02;;;23.00;65.20;;;;;;6205622;28;89090;-66
2023/03/03 08:05:43;;;;;;;10.20;9.18;;;23.10;65.20;;;;;;6198559;28;89118;-66
2023/03/03 08:08:46;;;;;;;9.70;8.63;;;23.10;65.20;;;;;;6204047;28;89293;-66
2023/03/03 08:11:53;;;;;;;10.05;9.05;;;23.10;65.20;;;;;;6203822;28;88772;-66
2023/03/03 08:14:58;;;;;;;9.98;8.98;;;23.10;65.50;;;;;;6201461;28;89549;-65
2023/03/03 08:18:02;;;;;;;10.70;9.60;;;23.10;65.20;;;;;;6204211;28;88283;-65
2023/03/03 08:21:10;;;;;;;9.93;8.93;;;23.10;65.20;;;;;;6205049;28;89012;-66
2023/03/03 08:24:13;;;;;;;9.77;8.80;;;23.10;65.20;;;;;;6206432;28;89595;-66
2023/03/03 08:27:15;;;;;;;9.80;8.88;;;23.10;65.20;;;;;;6205388;28;90732;-66
2023/03/03 08:30:17;;;;;;;10.15;9.15;;;23.10;65.20;;;;;;6203927;28;89253;-66
2023/03/03 08:33:19;;;;;;;9.85;8.85;;;23.20;65.30;;;;;;6204695;28;89156;-66
2023/03/03 08:36:23;;;;;;;9.35;8.45;;;23.20;65.20;;;;;;6198549;28;89324;-66
2023/03/03 08:39:25;;;;;;;9.38;8.48;;;23.20;65.20;;;;;;6200538;28;88958;-66
2023/03/03 08:42:28;;;;;;;9.65;8.75;;;23.10;65.20;;;;;;6204789;28;88910;-66
2023/03/03 08:45:31;;;;;;;9.40;8.45;;;23.20;65.20;;;;;;6204085;28;89330;-65
2023/03/03 08:48:34;;;;;;;9.70;8.80;;;23.20;65.20;;;;;;6205816;28;88896;-65
2023/03/03 08:51:37;;;;;;;8.82;8.02;;;23.20;65.20;;;;;;6201823;28;89257;-65
2023/03/03 08:54:39;;;;;;;9.77;8.43;;;23.20;65.30;;;;;;6202728;28;89166;-65
2023/03/03 08:57:42;;;;;;;9.40;8.38;;;23.20;65.40;;;;;;6202341;28;90127;-66
2023/03/03 09:00:44;;;;;;;8.85;7.97;;;23.20;65.30;;;;;;6204565;28;89077;-66
2023/03/03 09:03:46;;;;;;;9.20;8.30;;;23.30;65.40;;;;;;6205532;28;89419;-65
2023/03/03 09:06:49;;;;;;;8.80;7.90;;;23.30;65.40;;;;;;6203547;28;89093;-65
2023/03/03 09:09:51;;;;;;;9.23;8.20;;;23.30;65.30;;;;;;6200489;28;89317;-65
2023/03/03 09:12:57;;;;;;;9.77;8.77;;;23.30;65.40;;;;;;6203317;28;89325;-66
2023/03/03 09:15:59;;;;;;;10.45;8.90;;;23.30;65.10;;;;;;6196031;28;89278;-66
2023/03/03 09:19:21;;;;;;;9.73;8.50;;;23.30;65.30;;;;;;6202354;28;88333;-66
2023/03/03 09:22:26;;;;;;;9.45;8.52;;;23.30;65.40;;;;;;6203860;28;89132;-66
2023/03/03 09:25:33;;;;;;;9.15;8.13;;;23.30;65.40;;;;;;6202346;28;88997;-66
2023/03/03 09:28:35;;;;;;;9.18;7.65;;;23.30;65.40;;;;;;6203062;28;89909;-65
2023/03/03 09:31:40;;;;;;;8.77;7.95;;;23.30;65.40;;;;;;6203607;28;89000;-66
2023/03/03 09:34:43;;;;;;;9.75;7.75;;;23.30;65.40;;;;;;6198835;28;89432;-66
2023/03/03 09:37:51;;;;;;;8.35;7.55;;;23.30;65.40;;;;;;6196298;28;89099;-65
2023/03/03 09:41:18;;;;;;;8.98;8.07;;;23.30;65.50;;;;;;6203720;28;89098;-66
2023/03/03 09:44:40;;;;;;;10.02;7.65;;;23.40;65.50;;;;;;6193799;28;89054;-65
2023/03/03 09:47:56;;;;;;;8.70;7.90;;;23.40;65.50;;;;;;6197105;28;89002;-66
2023/03/03 09:51:08;;;;;;;8.77;7.80;;;23.40;65.50;;;;;;6207797;28;87122;-66
2023/03/03 09:54:30;;;;;;;9.35;7.88;;;23.40;65.60;;;;;;6191015;28;89111;-66
2023/03/03 09:57:47;;;;;;;9.55;8.13;;;23.40;65.50;;;;;;6207119;28;89351;-66
2023/03/03 10:00:59;;;;;;;8.30;7.50;;;23.40;65.50;;;;;;6199005;28;89867;-66
2023/03/03 10:04:35;;;;;;;8.23;7.43;;;23.40;65.50;;;;;;6184740;28;88752;-66
2023/03/03 10:07:48;;;;;;;9.90;8.07;;;23.40;65.50;;;;;;6194308;28;89076;-65
2023/03/03 10:11:01;;;;;;;8.50;7.70;;;23.40;65.50;;;;;;6207619;28;89130;-66
2023/03/03 10:14:38;;;;;;;8.30;7.35;;;23.40;65.50;;;;;;6207660;28;89084;-66
2023/03/03 10:17:51;;;;;;;8.65;7.45;;;23.40;65.50;;;;;;6201424;28;89036;-66
2023/03/03 10:21:02;;;;;;;7.68;6.97;;;23.50;65.70;;;;;;6208488;28;89090;-66
2023/03/03 10:24:20;;;;;;;7.75;6.93;;;23.50;65.60;;;;;;6195807;28;88604;-66
2023/03/03 10:27:36;;;;;;;8.15;7.30;;;23.50;65.70;;;;;;6205696;28;88932;-66
2023/03/03 10:30:45;;;;;;;7.90;7.13;;;23.50;65.70;;;;;;6195588;28;87743;-66
2023/03/03 10:33:54;;;;;;;7.78;7.07;;;23.50;65.70;;;;;;6206319;28;91300;-66
2023/03/03 10:37:04;;;;;;;7.53;6.82;;;23.60;65.70;;;;;;6202601;28;89076;-66
2023/03/03 10:40:19;;;;;;;7.72;7.03;;;23.60;65.70;;;;;;6207445;28;89156;-66
2023/03/03 10:43:52;;;;;;;7.65;6.82;;;23.60;65.70;;;;;;6203034;28;89207;-66
2023/03/03 10:47:08;;;;;;;7.22;6.53;;;23.50;65.70;;;;;;6206584;28;89082;-65
2023/03/03 10:50:18;;;;;;;7.47;6.72;;;23.50;65.70;;;;;;6205220;28;89480;-66
2023/03/03 10:53:27;;;;;;;7.55;6.85;;;23.60;65.80;;;;;;6205544;28;89119;-66
2023/03/03 10:56:39;;;;;;;7.57;6.88;;;23.60;65.80;;;;;;6202136;28;87321;-66
2023/03/03 10:59:57;;;;;;;8.85;7.95;;;23.60;65.90;;;;;;6198181;28;89080;-66
2023/03/03 11:03:29;;;;;;;11.60;10.40;;;23.60;65.80;;;;;;6206175;28;89050;-66
2023/03/03 11:06:43;;;;;;;18.23;16.25;;;23.50;64.60;;;;;;6202284;28;90686;-67
2023/03/03 11:10:00;;;;;;;17.92;16.02;;;23.40;60.30;;;;;;6200335;28;89066;-67
2023/03/03 11:13:13;;;;;;;18.50;16.55;;;23.40;58.80;;;;;;6199126;28;88939;-67
2023/03/03 11:16:42;;;;;;;18.90;16.98;;;23.40;57.90;;;;;;6202989;28;89011;-66
2023/03/03 11:19:58;;;;;;;17.85;15.70;;;23.30;57.50;;;;;;6198343;28;89083;-66
2023/03/03 11:23:09;;;;;;;15.55;13.95;;;23.30;57.40;;;;;;6205308;28;89109;-66
2023/03/03 11:26:18;;;;;;;15.85;14.15;;;23.30;57.10;;;;;;6204243;28;90817;-66
2023/03/03 11:29:32;;;;;;;17.10;15.30;;;23.30;56.70;;;;;;6201574;28;87338;-66
2023/03/03 11:32:42;;;;;;;18.80;15.07;;;23.30;56.60;;;;;;6204790;28;89043;-66
2023/03/03 11:35:49;;;;;;;16.10;14.40;;;23.30;56.20;;;;;;6202202;28;88112;-66
2023/03/03 11:38:57;;;;;;;15.90;14.20;;;23.30;56.30;;;;;;6200053;28;90403;-66
2023/03/03 11:42:08;;;;;;;16.25;14.45;;;23.30;56.20;;;;;;6204818;28;89578;-66
2023/03/03 11:45:17;;;;;;;14.93;13.43;;;23.30;56.10;;;;;;6194168;28;88923;-66
2023/03/03 11:48:26;;;;;;;15.25;13.65;;;23.20;55.80;;;;;;6205263;28;88017;-66
2023/03/03 11:51:38;;;;;;;14.35;12.95;;;23.20;55.50;;;;;;6203050;28;89008;-66
2023/03/03 11:54:48;;;;;;;13.27;11.75;;;23.20;55.30;;;;;;6194440;28;87975;-66
2023/03/03 11:57:59;;;;;;;14.25;12.77;;;23.20;55.20;;;;;;6202585;28;88995;-66
2023/03/03 12:01:08;;;;;;;13.90;12.48;;;23.20;55.50;;;;;;6196993;28;87256;-66
2023/03/03 12:04:15;;;;;;;14.63;11.73;;;23.10;55.10;;;;;;6203915;28;89148;-66
2023/03/03 12:07:28;;;;;;;13.32;11.88;;;23.20;55.00;;;;;;6199031;28;90712;-66
2023/03/03 12:10:36;;;;;;;11.70;10.50;;;23.20;55.20;;;;;;6192765;28;90297;-67
2023/03/03 12:13:50;;;;;;;12.30;10.60;;;23.20;55.30;;;;;;6204955;28;91490;-66
2023/03/03 12:16:57;;;;;;;12.10;10.73;;;23.20;55.40;;;;;;6203087;28;89481;-66
2023/03/03 12:20:06;;;;;;;11.68;10.43;;;23.20;55.40;;;;;;6202338;28;88835;-67
2023/03/03 12:23:20;;;;;;;12.75;10.45;;;23.20;55.40;;;;;;6202538;28;89250;-66
2023/03/03 12:26:33;;;;;;;11.50;10.07;;;23.20;55.40;;;;;;6196363;28;89061;-67
2023/03/03 12:29:45;;;;;;;13.40;10.40;;;23.20;55.40;;;;;;6196394;28;89201;-66
2023/03/03 12:33:17;;;;;;;11.25;10.05;;;23.20;55.40;;;;;;6204738;28;87217;-67
2023/03/03 12:36:36;;;;;;;10.82;9.73;;;23.20;55.40;;;;;;6196914;28;89437;-66
2023/03/03 12:39:50;;;;;;;11.27;10.07;;;23.20;55.40;;;;;;6204718;28;88152;-66
2023/03/03 12:43:15;;;;;;;10.10;9.10;;;23.20;55.40;;;;;;6201619;28;90287;-67
2023/03/03 12:46:24;;;;;;;9.73;8.23;;;23.20;55.70;;;;;;6202801;28;89055;-66
2023/03/03 12:49:38;;;;;;;11.02;8.55;;;23.30;56.30;;;;;;6204986;28;89427;-66
2023/03/03 12:52:52;;;;;;;9.60;8.48;;;23.30;56.90;;;;;;6199682;28;88065;-67
2023/03/03 12:55:57;;;;;;;8.90;8.00;;;23.20;57.20;;;;;;6204891;28;89027;-66
2023/03/03 12:59:04;;;;;;;9.32;7.90;;;23.30;57.50;;;;;;6201510;28;89444;-66
2023/03/03 13:02:29;;;;;;;9.63;7.72;;;23.30;57.80;;;;;;6204151;28;89202;-66
2023/03/03 13:05:40;;;;;;;9.60;7.05;;;23.30;58.00;;;;;;6203850;28;88273;-66
2023/03/03 13:09:12;;;;;;;7.35;6.55;;;23.30;58.30;;;;;;6203709;28;88154;-66
2023/03/03 13:12:31;;;;;;;8.45;7.45;;;23.30;58.50;;;;;;6191922;28;89181;-66
2023/03/03 13:15:39;;;;;;;8.15;6.85;;;23.30;58.70;;;;;;6203777;28;90186;-66
2023/03/03 13:18:52;;;;;;;8.35;6.72;;;23.30;58.90;;;;;;6206429;28;89112;-66
2023/03/03 13:21:58;;;;;;;8.45;6.68;;;23.30;59.00;;;;;;6206551;28;88283;-66
2023/03/03 13:25:07;;;;;;;7.07;6.22;;;23.30;59.10;;;;;;6203385;28;89060;-66
2023/03/03 13:28:18;;;;;;;6.90;6.20;;;23.30;59.30;;;;;;6197503;28;87918;-66
2023/03/03 13:31:21;;;;;;;7.57;6.85;;;23.30;59.40;;;;;;6208237;28;90835;-66
2023/03/03 13:34:37;;;;;;;7.53;6.78;;;23.40;59.50;;;;;;6205866;28;87706;-66
2023/03/03 13:37:43;;;;;;;6.85;6.18;;;23.30;59.60;;;;;;6203684;28;88620;-66
2023/03/03 13:40:50;;;;;;;6.90;5.95;;;23.30;59.70;;;;;;6207026;28;89194;-66
2023/03/03 13:43:58;;;;;;;6.70;6.10;;;23.30;59.80;;;;;;6207099;28;89287;-66
2023/03/03 13:47:13;;;;;;;7.07;6.22;;;23.30;59.90;;;;;;6201302;28;90084;-66
2023/03/03 13:50:23;;;;;;;7.70;6.90;;;23.40;60.00;;;;;;6207199;28;88298;-66
2023/03/03 13:53:37;;;;;;;6.97;6.30;;;23.30;60.10;;;;;;6204854;28;88764;-66
2023/03/03 13:57:01;;;;;;;6.80;6.10;;;23.30;60.20;;;;;;6199744;28;89270;-66
2023/03/03 14:00:15;;;;;;;6.65;5.88;;;23.30;60.30;;;;;;6205858;28;89164;-66
2023/03/03 14:03:32;;;;;;;6.72;6.00;;;23.30;60.40;;;;;;6194922;28;89438;-66
2023/03/03 14:06:34;;;;;;;6.88;5.53;;;23.40;60.60;;;;;;6207388;28;89086;-66
2023/03/03 14:09:51;;;;;;;6.60;5.97;;;23.30;60.60;;;;;;6207632;28;88246;-66
2023/03/03 14:13:03;;;;;;;6.70;5.97;;;23.30;60.60;;;;;;6207323;28;89911;-66
2023/03/03 14:16:12;;;;;;;6.18;5.60;;;23.30;60.80;;;;;;6206741;28;89349;-66
2023/03/03 14:19:17;;;;;;;6.47;5.88;;;23.40;61.00;;;;;;6197375;28;89909;-66
2023/03/03 14:22:26;;;;;;;6.72;6.03;;;23.30;60.90;;;;;;6192768;28;89162;-66
2023/03/03 14:25:48;;;;;;;7.15;5.80;;;23.40;61.00;;;;;;6206903;28;87975;-66
2023/03/03 14:29:14;;;;;;;6.70;6.10;;;23.30;61.20;;;;;;6199926;28;89426;-66
2023/03/03 14:32:24;;;;;;;6.93;6.07;;;23.30;61.30;;;;;;6199820;28;89112;-66
2023/03/03 14:35:30;;;;;;;6.20;5.60;;;23.30;61.40;;;;;;6200567;28;89117;-64
2023/03/03 14:38:50;;;;;;;6.57;5.97;;;23.30;61.50;;;;;;6195047;28;88015;-66
2023/03/03 14:41:56;;;;;;;6.15;5.63;;;23.40;61.80;;;;;;6196171;28;88193;-66
2023/03/03 14:45:03;;;;;;;8.15;5.65;;;23.30;61.80;;;;;;6195029;28;87738;-66
2023/03/03 14:48:15;;;;;;;6.90;5.70;;;23.30;62.00;;;;;;6204279;28;88025;-66
2023/03/03 14:51:24;;;;;;;6.38;5.68;;;23.30;62.20;;;;;;6206195;28;90147;-66
2023/03/03 14:54:29;;;;;;;8.02;6.10;;;23.30;62.30;;;;;;6200497;28;89172;-66
2023/03/03 14:57:45;;;;;;;6.68;6.00;;;23.30;62.30;;;;;;6206372;28;89090;-66
2023/03/03 15:00:48;;;;;;;6.00;5.40;;;23.30;62.50;;;;;;6203910;28;89078;-66
2023/03/03 15:03:59;;;;;;;6.57;5.90;;;23.40;62.60;;;;;;6204881;28;88974;-66
2023/03/03 15:07:21;;;;;;;6.22;5.50;;;23.30;62.60;;;;;;6205667;28;89047;-66
2023/03/03 15:10:32;;;;;;;5.80;5.18;;;23.30;62.70;;;;;;6194752;28;89102;-66
2023/03/03 15:13:35;;;;;;;5.82;5.28;;;23.40;62.80;;;;;;6196577;28;88286;-66
2023/03/03 15:16:39;;;;;;;6.30;5.70;;;23.30;62.80;;;;;;6204175;28;89542;-66
2023/03/03 15:19:50;;;;;;;6.70;5.72;;;23.40;63.00;;;;;;6206603;28;89201;-66
2023/03/03 15:23:00;;;;;;;6.05;5.45;;;23.40;63.00;;;;;;6205763;28;90086;-66
2023/03/03 15:26:09;;;;;;;6.18;5.57;;;23.40;63.10;;;;;;6206223;28;89588;-66
2023/03/03 15:29:17;;;;;;;6.30;5.53;;;23.40;63.20;;;;;;6206252;28;89039;-66
2023/03/03 15:32:28;;;;;;;5.90;5.30;;;23.40;63.20;;;;;;6204628;28;87071;-66
2023/03/03 15:35:50;;;;;;;6.22;5.30;;;23.30;63.20;;;;;;6206565;28;89536;-66
2023/03/03 15:39:00;;;;;;;7.85;5.30;;;23.40;63.30;;;;;;6205422;28;89167;-66
2023/03/03 15:42:05;;;;;;;6.07;5.25;;;23.40;63.30;;;;;;6206321;28;87964;-66
2023/03/03 15:45:17;;;;;;;7.25;5.80;;;23.40;63.40;;;;;;6206687;28;88631;-66
2023/03/03 15:48:40;;;;;;;7.68;5.55;;;23.40;63.50;;;;;;6198854;28;89389;-66
2023/03/03 15:52:08;;;;;;;6.60;5.40;;;23.40;63.50;;;;;;6194315;28;89047;-66
2023/03/03 15:55:26;;;;;;;5.80;5.20;;;23.40;63.40;;;;;;6197494;28;88155;-66
2023/03/03 15:59:00;;;;;;;6.20;5.50;;;23.40;63.50;;;;;;6204712;28;89278;-66
2023/03/03 16:02:14;;;;;;;5.75;5.25;;;23.40;63.50;;;;;;6197950;28;89216;-66